EST,Max TemperatureF,Mean TemperatureF,Min TemperatureF,Max Dew PointF,MeanDew PointF,Min DewpointF,Max Humidity, Mean Humidity, Min Humidity, Max Sea Level PressureIn, Mean Sea Level PressureIn, Min Sea Level PressureIn, Max VisibilityMiles, Mean VisibilityMiles, Min VisibilityMiles, Max Wind SpeedMPH, Mean Wind SpeedMPH, Max Gust SpeedMPH,PrecipitationIn, CloudCover, Events, WindDirDegrees
2012-11-1,43,40,38,39,34,30,91,76,57,29.82,29.74,29.69,10,9,4,24,17,33,0.00,8,Rain,321
2012-11-2,39,37,35,34,31,29,91,78,70,30.15,30.00,29.83,10,10,4,22,17,30,0.00,8,Rain-Snow,345
2012-11-3,37,36,34,33,30,28,94,80,70,30.24,30.21,30.15,10,9,2,16,9,21,0.00,8,Rain-Snow,8
2012-11-4,39,37,35,32,30,28,79,74,68,30.25,30.23,30.21,10,10,10,14,7,16,0.00,8,,15
2012-11-5,37,33,30,29,24,20,84,69,54,30.29,30.24,30.17,10,10,10,12,7,,0.00,8,,92
2012-11-6,40,34,28,28,26,22,78,67,55,30.16,30.05,29.98,10,10,10,13,7,17,0.00,8,,149
2012-11-7,45,38,32,30,28,27,82,68,53,30.18,30.12,30.03,10,10,10,10,6,,0.00,4,,124
2012-11-8,45,40,35,38,33,28,80,75,70,30.18,30.13,30.06,10,10,10,16,7,22,0.00,8,,184
2012-11-9,47,45,43,41,40,38,87,81,74,30.17,30.13,30.08,10,8,5,9,5,,0.00,8,,139
2012-11-10,50,46,44,47,42,39,95,88,80,30.17,30.04,29.86,10,6,2,20,10,24,0.00,7,Rain,106
2012-11-11,68,58,48,53,49,46,94,67,52,29.89,29.82,29.71,10,9,4,26,10,37,0.00,4,Rain,179
2012-11-12,52,40,28,51,30,16,95,79,55,30.13,29.93,29.76,10,8,2,29,15,36,0.00,8,Rain-Snow,240
2012-11-13,38,33,28,29,23,17,81,68,56,30.49,30.36,30.14,10,10,10,25,15,32,0.00,5,Snow,237
2012-11-14,41,35,29,28,26,23,82,71,58,30.52,30.47,30.38,10,10,10,13,8,18,0.00,2,,164
2012-11-15,48,40,33,34,30,25,91,68,54,30.38,30.32,30.27,10,10,7,15,8,23,0.00,4,,179
2012-11-16,42,35,28,37,28,23,88,71,56,30.52,30.47,30.35,10,10,7,13,5,17,0.00,1,,20
2012-11-17,46,36,28,38,32,25,99,91,66,30.57,30.53,30.50,10,6,0,7,4,,0.00,2,Fog,136
2012-11-18,56,44,34,33,31,27,89,62,34,30.51,30.46,30.38,10,9,7,12,5,16,0.00,0,,146
2012-11-19,53,44,36,34,33,31,81,62,46,30.37,30.27,30.14,10,10,10,9,6,,0.00,3,,151
2012-11-20,51,47,43,45,41,34,97,81,61,30.17,30.14,30.10,10,7,2,6,3,,0.00,8,Rain,175
2012-11-21,54,50,45,44,42,35,94,76,56,30.20,30.11,29.99,10,7,4,16,5,22,0.00,3,,191
2012-11-22,64,56,49,47,39,35,71,53,33,29.99,29.80,29.57,10,10,7,23,13,33,0.00,2,,197
2012-11-23,55,44,31,48,31,23,95,78,67,29.99,29.71,29.52,10,7,0,34,21,50,0.00,8,Snow,279
2012-11-24,32,30,29,25,21,19,83,68,62,30.12,30.05,29.95,10,10,2,23,17,38,0.00,8,Snow,309
2012-11-25,33,30,27,30,26,20,96,81,65,29.95,29.83,29.76,10,6,0,23,11,32,0.00,8,Snow,251
2012-11-26,30,28,27,24,19,15,82,66,56,30.29,30.15,29.96,10,9,2,22,14,29,0.00,8,Snow,307
2012-11-27,32,30,27,28,20,17,87,66,55,30.29,30.22,30.09,10,10,3,22,10,30,0.00,7,Snow,234
2012-11-28,37,31,28,30,22,16,94,69,60,30.25,30.18,30.08,10,9,1,21,15,28,0.00,7,Snow,273
2012-11-29,38,32,27,30,27,21,86,77,64,30.30,30.21,30.13,10,10,7,25,13,33,0.00,7,,4
2012-11-30,32,29,26,31,25,21,94,85,77,30.35,30.31,30.28,10,8,1,21,16,29,0.00,8,Snow,101